Terminal Aerodrome Forecast
Issued by NWS

Home | Current Version | Previous Version | Text Only | Print | Product List | Glossary On
Versions: 1 2 3 4 5 6 7 8 9 10 11 12 13 14 15 16 17 18 19 20 21 22 23 24 25 26 27 28 29 30 31 32 33 34 35 36 37 38 39 40 41 42
397
FTUS43 KGRB 281255 AAA
TAFRHI
TAF AMD
KRHI 281255Z 2813/0112 14003KT 4SM BR BKN025 OVC040
     FM281500 11003KT 4SM BR OVC015
     FM281800 06004KT 3SM BR VCSH OVC015
     FM282200 02007KT 4SM -RA BR OVC012
     FM010100 02009G14KT 3SM -RASNPL OVC012
     FM010300 02009G15KT 3SM -SN OVC012
     FM010800 02009G14KT P6SM -SN OVC012=

USA.gov is the U.S. government's official web portal to all federal, state and local government web resources and services.